Time;durP1;ratioP1;P1;durP2;ratioP2;P2;SDS_P1;SDS_P2;PMS_P1;PMS_P2;Temp;Humidity;BMP_temperature;BMP_pressure;BME280_temperature;BME280_humidity;BME280_pressure;Samples;Min_cycle;Max_cycle;Signal;HPM_P1;HPM_P2
2022/12/12 00:01:27;;;;;;;2.33;2.17;;;;;;;;;;7386193;19;20188;-64
2022/12/12 00:03:52;;;;;;;1.57;1.47;;;;;;;;;;7381515;19;20144;-64
2022/12/12 00:06:18;;;;;;;2.43;2.23;;;;;;;;;;7386425;19;20125;-63
2022/12/12 00:08:44;;;;;;;2.37;2.13;;;;;;;;;;7381537;19;20148;-63
2022/12/12 00:11:09;;;;;;;1.70;1.60;;;;;;;;;;7389163;19;20125;-64
2022/12/12 00:13:36;;;;;;;1.77;1.67;;;;;;;;;;7384741;19;20153;-64
2022/12/12 00:16:03;;;;;;;3.03;1.57;;;;;;;;;;7383952;19;20117;-64
2022/12/12 00:18:28;;;;;;;1.83;1.60;;;;;;;;;;7378522;19;20125;-63
2022/12/12 00:20:55;;;;;;;0.80;0.80;;;;;;;;;;7382203;19;20112;-63
2022/12/12 00:23:23;;;;;;;1.50;1.40;;;;;;;;;;7376691;19;20488;-64
2022/12/12 00:25:55;;;;;;;1.30;1.20;;;;;;;;;;7375027;19;20125;-63
2022/12/12 00:28:21;;;;;;;1.93;1.83;;;;;;;;;;7379376;19;20117;-64
2022/12/12 00:30:46;;;;;;;1.13;1.07;;;;;;;;;;7379651;19;20113;-63
2022/12/12 00:33:11;;;;;;;1.13;1.13;;;;;;;;;;7378153;19;20145;-63
2022/12/12 00:35:36;;;;;;;1.43;1.33;;;;;;;;;;7381636;19;20132;-64
2022/12/12 00:38:02;;;;;;;2.93;1.63;;;;;;;;;;7385789;19;20112;-63
2022/12/12 00:40:27;;;;;;;2.60;2.07;;;;;;;;;;7376961;19;20508;-63
2022/12/12 00:42:52;;;;;;;2.23;1.83;;;;;;;;;;7374413;19;20662;-63
2022/12/12 00:45:18;;;;;;;1.37;1.27;;;;;;;;;;7381458;19;20598;-64
2022/12/12 00:47:43;;;;;;;3.27;1.83;;;;;;;;;;7384012;19;20145;-63
2022/12/12 00:50:08;;;;;;;1.57;1.47;;;;;;;;;;7381520;19;20181;-64
2022/12/12 00:52:34;;;;;;;1.90;1.80;;;;;;;;;;7382095;19;20151;-64
2022/12/12 00:54:59;;;;;;;1.70;1.60;;;;;;;;;;7370021;19;20112;-63
2022/12/12 00:57:24;;;;;;;3.93;2.07;;;;;;;;;;7376852;19;20131;-64
2022/12/12 00:59:50;;;;;;;0.90;0.90;;;;;;;;;;7377235;19;20137;-63
2022/12/12 01:02:15;;;;;;;0.70;0.70;;;;;;;;;;7375821;19;20137;-64
2022/12/12 01:04:40;;;;;;;4.13;1.40;;;;;;;;;;7386519;19;20614;-63
2022/12/12 01:07:06;;;;;;;0.80;0.70;;;;;;;;;;7381510;19;20109;-63
2022/12/12 01:09:31;;;;;;;0.90;0.90;;;;;;;;;;7376737;19;20128;-63
2022/12/12 01:11:56;;;;;;;3.20;1.10;;;;;;;;;;7370711;19;20179;-63
2022/12/12 01:14:22;;;;;;;1.43;1.40;;;;;;;;;;7378695;19;20148;-63
2022/12/12 01:16:47;;;;;;;1.33;1.03;;;;;;;;;;7366169;19;20500;-63
2022/12/12 01:19:12;;;;;;;1.53;1.43;;;;;;;;;;7372846;19;20626;-63
2022/12/12 01:21:38;;;;;;;2.43;1.57;;;;;;;;;;7372100;19;20129;-63
2022/12/12 01:24:03;;;;;;;0.67;0.67;;;;;;;;;;7370847;19;20129;-63
2022/12/12 01:26:29;;;;;;;1.10;1.10;;;;;;;;;;7373729;19;20136;-63
2022/12/12 01:28:55;;;;;;;0.90;0.90;;;;;;;;;;7380553;19;20117;-63
2022/12/12 01:31:20;;;;;;;0.80;0.80;;;;;;;;;;7376581;19;20117;-63
2022/12/12 01:33:46;;;;;;;3.27;1.20;;;;;;;;;;7373864;19;20232;-63
2022/12/12 01:36:18;;;;;;;2.17;1.83;;;;;;;;;;7380574;19;20652;-63
2022/12/12 01:38:45;;;;;;;1.00;1.00;;;;;;;;;;7382644;19;20607;-63
2022/12/12 01:41:10;;;;;;;1.37;1.03;;;;;;;;;;7378988;19;20152;-63
2022/12/12 01:43:36;;;;;;;4.70;2.40;;;;;;;;;;7374809;19;21561;-64
2022/12/12 01:46:01;;;;;;;4.00;2.00;;;;;;;;;;7376695;19;20474;-63
2022/12/12 01:48:32;;;;;;;1.23;1.07;;;;;;;;;;7376462;19;20156;-63
2022/12/12 01:51:02;;;;;;;1.67;1.57;;;;;;;;;;7376821;19;20137;-63
2022/12/12 01:53:28;;;;;;;1.17;1.03;;;;;;;;;;7377430;19;20189;-63
2022/12/12 01:55:54;;;;;;;4.73;1.67;;;;;;;;;;7383199;19;20128;-63
2022/12/12 01:58:20;;;;;;;1.77;1.60;;;;;;;;;;7379004;19;20125;-63
2022/12/12 02:00:45;;;;;;;1.17;1.10;;;;;;;;;;7376016;19;20140;-63
2022/12/12 02:03:11;;;;;;;0.57;0.57;;;;;;;;;;7378296;19;20191;-63
2022/12/12 02:05:55;;;;;;;1.10;1.10;;;;;;;;;;7377419;19;20211;-63
2022/12/12 02:08:21;;;;;;;6.53;1.77;;;;;;;;;;7378635;19;20136;-63
2022/12/12 02:10:47;;;;;;;1.63;1.23;;;;;;;;;;7388202;19;20133;-63
2022/12/12 02:13:20;;;;;;;3.50;1.40;;;;;;;;;;7390633;19;20145;-63
2022/12/12 02:15:51;;;;;;;2.83;0.87;;;;;;;;;;7392298;19;20582;-63
2022/12/12 02:18:39;;;;;;;4.40;1.87;;;;;;;;;;7387756;19;20121;-63
2022/12/12 02:21:14;;;;;;;2.23;2.03;;;;;;;;;;7380632;19;20245;-63
2022/12/12 02:24:07;;;;;;;1.07;1.07;;;;;;;;;;7385779;19;20618;-63
2022/12/12 02:26:49;;;;;;;4.23;2.07;;;;;;;;;;7394737;19;20132;-63
2022/12/12 02:29:24;;;;;;;1.70;1.60;;;;;;;;;;7391496;19;20128;-63
2022/12/12 02:32:07;;;;;;;1.13;1.13;;;;;;;;;;7384876;19;20174;-63
2022/12/12 02:34:48;;;;;;;2.60;1.63;;;;;;;;;;7379621;19;20678;-63
2022/12/12 02:37:29;;;;;;;3.43;1.93;;;;;;;;;;7390958;19;20627;-63
2022/12/12 02:40:11;;;;;;;1.90;1.00;;;;;;;;;;7387843;19;20151;-63
2022/12/12 02:42:48;;;;;;;0.87;0.87;;;;;;;;;;7390767;19;20171;-63
2022/12/12 02:45:40;;;;;;;2.53;2.23;;;;;;;;;;7385895;19;20196;-63
2022/12/12 02:48:32;;;;;;;1.77;1.67;;;;;;;;;;7390627;19;20129;-63
2022/12/12 02:51:00;;;;;;;2.87;1.90;;;;;;;;;;7386067;19;20739;-63
2022/12/12 02:53:25;;;;;;;1.70;1.53;;;;;;;;;;7387604;19;20164;-63
2022/12/12 02:56:22;;;;;;;1.67;1.10;;;;;;;;;;7393250;19;20135;-63
2022/12/12 02:58:48;;;;;;;1.57;1.33;;;;;;;;;;7393163;19;20125;-63
2022/12/12 03:01:47;;;;;;;1.00;0.97;;;;;;;;;;7387418;19;21118;-63
2022/12/12 03:07:46;;;;;;;0.87;0.87;;;;;;;;;;7393761;19;20137;-64
2022/12/12 03:10:31;;;;;;;4.53;2.90;;;;;;;;;;7386873;19;20125;-63
2022/12/12 03:13:31;;;;;;;1.70;1.60;;;;;;;;;;7387520;19;20622;-63
2022/12/12 03:16:23;;;;;;;1.77;1.67;;;;;;;;;;7392367;19;20181;-63
2022/12/12 03:19:08;;;;;;;2.27;2.10;;;;;;;;;;7392144;19;20188;-63
2022/12/12 03:21:38;;;;;;;1.10;0.97;;;;;;;;;;7385461;19;20137;-63
2022/12/12 03:24:20;;;;;;;1.70;1.30;;;;;;;;;;7383570;19;20216;-63
2022/12/12 03:26:49;;;;;;;2.53;1.53;;;;;;;;;;7391059;19;20147;-63
2022/12/12 03:29:18;;;;;;;2.27;2.07;;;;;;;;;;7392954;19;20125;-63
2022/12/12 03:31:47;;;;;;;2.17;2.00;;;;;;;;;;7384343;19;20122;-63
2022/12/12 03:34:16;;;;;;;1.27;1.17;;;;;;;;;;7389988;19;20445;-63
2022/12/12 03:36:50;;;;;;;7.77;2.43;;;;;;;;;;7389859;19;20133;-63
2022/12/12 03:39:29;;;;;;;1.40;1.30;;;;;;;;;;7387898;19;20129;-63
2022/12/12 03:41:59;;;;;;;3.53;1.87;;;;;;;;;;7381601;19;20479;-63
2022/12/12 03:44:30;;;;;;;5.60;1.50;;;;;;;;;;7387005;19;20129;-63
2022/12/12 03:47:03;;;;;;;2.13;1.87;;;;;;;;;;7390566;19;20121;-63
2022/12/12 03:49:33;;;;;;;2.10;1.40;;;;;;;;;;7388277;19;20514;-63
2022/12/12 03:52:09;;;;;;;5.27;2.60;;;;;;;;;;7383465;19;20141;-63
2022/12/12 03:54:40;;;;;;;1.80;1.70;;;;;;;;;;7388907;19;20124;-63
2022/12/12 03:57:10;;;;;;;1.83;1.73;;;;;;;;;;7386163;19;20748;-63
2022/12/12 03:59:39;;;;;;;3.03;1.90;;;;;;;;;;7387567;19;20128;-63
2022/12/12 04:02:29;;;;;;;2.70;1.80;;;;;;;;;;7382713;19;20137;-63
2022/12/12 04:05:19;;;;;;;2.80;2.23;;;;;;;;;;7390977;19;20144;-63
2022/12/12 04:07:50;;;;;;;1.67;1.57;;;;;;;;;;7388798;19;20143;-63
2022/12/12 04:13:39;;;;;;;1.50;1.40;;;;;;;;;;7384275;19;20163;-63
2022/12/12 04:16:11;;;;;;;3.20;2.43;;;;;;;;;;7390161;19;20124;-63
2022/12/12 04:18:55;;;;;;;3.27;2.30;;;;;;;;;;7388102;19;20153;-63
2022/12/12 04:24:37;;;;;;;1.80;1.30;;;;;;;;;;7382427;19;20549;-63
2022/12/12 04:27:08;;;;;;;3.07;2.17;;;;;;;;;;7388738;19;20133;-63
2022/12/12 04:29:37;;;;;;;1.97;1.77;;;;;;;;;;7386256;19;20120;-63
2022/12/12 04:32:24;;;;;;;2.17;2.00;;;;;;;;;;7381260;19;20495;-63
2022/12/12 04:35:00;;;;;;;2.23;1.83;;;;;;;;;;7386657;19;20121;-63
2022/12/12 04:37:38;;;;;;;1.63;1.20;;;;;;;;;;7385981;19;20628;-63
2022/12/12 04:40:07;;;;;;;1.80;1.70;;;;;;;;;;7388673;19;20140;-63
2022/12/12 04:42:44;;;;;;;1.80;1.63;;;;;;;;;;7380021;19;20165;-63
2022/12/12 04:45:14;;;;;;;2.23;2.07;;;;;;;;;;7389325;19;20447;-63
2022/12/12 04:47:42;;;;;;;2.03;1.93;;;;;;;;;;7382712;19;20602;-63
2022/12/12 04:50:08;;;;;;;2.93;2.70;;;;;;;;;;7386093;19;20494;-63
2022/12/12 04:52:34;;;;;;;2.33;2.00;;;;;;;;;;7383338;19;20153;-63
2022/12/12 04:55:03;;;;;;;2.10;1.50;;;;;;;;;;7388634;19;20124;-63
2022/12/12 04:57:33;;;;;;;2.93;1.83;;;;;;;;;;7383558;19;20156;-63
2022/12/12 04:59:58;;;;;;;1.70;1.50;;;;;;;;;;7387526;19;20497;-63
2022/12/12 05:02:38;;;;;;;2.10;1.93;;;;;;;;;;7375543;19;20168;-63
2022/12/12 05:05:27;;;;;;;1.10;1.10;;;;;;;;;;7388313;19;20128;-63
2022/12/12 05:08:01;;;;;;;2.03;1.90;;;;;;;;;;7387775;19;20147;-63
2022/12/12 05:10:27;;;;;;;1.40;1.20;;;;;;;;;;7383284;19;20605;-63
2022/12/12 05:12:57;;;;;;;2.67;1.70;;;;;;;;;;7382476;19;20151;-63
2022/12/12 05:15:22;;;;;;;1.43;1.33;;;;;;;;;;7386230;19;20481;-63
2022/12/12 05:17:55;;;;;;;1.97;1.77;;;;;;;;;;7385280;19;20198;-63
2022/12/12 05:20:21;;;;;;;1.43;1.33;;;;;;;;;;7380778;19;20140;-63
2022/12/12 05:22:46;;;;;;;1.37;1.27;;;;;;;;;;7382784;19;20149;-63
2022/12/12 05:25:12;;;;;;;1.43;1.13;;;;;;;;;;7384698;19;20155;-63
2022/12/12 05:27:37;;;;;;;1.10;1.00;;;;;;;;;;7386429;19;20125;-63
2022/12/12 05:30:03;;;;;;;1.67;1.40;;;;;;;;;;7382966;19;20129;-63
2022/12/12 05:32:28;;;;;;;3.97;1.70;;;;;;;;;;7384070;19;20278;-63
2022/12/12 05:34:53;;;;;;;1.50;1.40;;;;;;;;;;7385953;19;20658;-63
2022/12/12 05:37:19;;;;;;;1.60;1.50;;;;;;;;;;7391559;19;20121;-65
2022/12/12 05:39:44;;;;;;;3.87;1.50;;;;;;;;;;7389566;19;20121;-65
2022/12/12 05:42:09;;;;;;;2.93;1.83;;;;;;;;;;7392441;19;20148;-65
2022/12/12 05:44:34;;;;;;;2.03;1.87;;;;;;;;;;7389969;19;20132;-65
2022/12/12 05:47:00;;;;;;;1.83;1.73;;;;;;;;;;7393038;19;20152;-65
2022/12/12 05:49:25;;;;;;;1.10;1.10;;;;;;;;;;7391733;19;20655;-63
2022/12/12 05:51:50;;;;;;;1.07;1.00;;;;;;;;;;7389731;19;20634;-65
2022/12/12 05:54:16;;;;;;;1.53;1.43;;;;;;;;;;7395292;19;20132;-65
2022/12/12 05:56:41;;;;;;;1.73;1.63;;;;;;;;;;7388767;19;20143;-65
2022/12/12 05:59:06;;;;;;;2.17;1.40;;;;;;;;;;7395332;19;20685;-65
2022/12/12 06:01:32;;;;;;;0.57;0.57;;;;;;;;;;7388626;19;20125;-65
2022/12/12 06:03:57;;;;;;;1.23;1.17;;;;;;;;;;7388093;19;20140;-65
2022/12/12 06:06:22;;;;;;;1.63;1.10;;;;;;;;;;7394692;19;20133;-62
2022/12/12 06:08:48;;;;;;;1.50;1.40;;;;;;;;;;7389622;19;20637;-63
2022/12/12 06:11:13;;;;;;;2.00;1.90;;;;;;;;;;7391330;19;20138;-63
2022/12/12 06:13:38;;;;;;;2.53;1.50;;;;;;;;;;7389585;19;20505;-63
2022/12/12 06:16:09;;;;;;;2.10;2.00;;;;;;;;;;7395043;19;20606;-63
2022/12/12 06:18:35;;;;;;;1.73;1.63;;;;;;;;;;7388605;19;20144;-63
2022/12/12 06:21:05;;;;;;;1.80;1.70;;;;;;;;;;7382638;19;20143;-63
2022/12/12 06:23:30;;;;;;;1.60;1.50;;;;;;;;;;7371685;19;20172;-62
2022/12/12 06:25:55;;;;;;;1.80;1.70;;;;;;;;;;7376726;19;20574;-63
2022/12/12 06:28:21;;;;;;;3.43;2.17;;;;;;;;;;7391241;19;20121;-63
2022/12/12 06:30:46;;;;;;;1.13;1.13;;;;;;;;;;7378215;19;20357;-63
2022/12/12 06:33:11;;;;;;;1.40;1.30;;;;;;;;;;7375070;19;20153;-63
2022/12/12 06:35:37;;;;;;;3.13;2.40;;;;;;;;;;7369908;19;20246;-63
2022/12/12 06:38:02;;;;;;;1.63;1.53;;;;;;;;;;7379658;19;20137;-62
2022/12/12 06:40:27;;;;;;;0.90;0.90;;;;;;;;;;7382234;19;20123;-62
2022/12/12 06:42:52;;;;;;;1.60;1.50;;;;;;;;;;7384670;19;20159;-63
2022/12/12 06:45:18;;;;;;;4.87;1.67;;;;;;;;;;7381857;19;20551;-63
2022/12/12 06:47:43;;;;;;;2.03;0.77;;;;;;;;;;7367819;19;20678;-63
2022/12/12 18:48:16;;;;;;;0.80;0.80;;;;;;;;;;7368425;19;20644;-62
2022/12/12 18:50:41;;;;;;;1.57;1.10;;;;;;;;;;7384410;19;20125;-62
2022/12/12 18:53:07;;;;;;;1.17;1.17;;;;;;;;;;7368525;19;20141;-63
2022/12/12 18:55:33;;;;;;;3.10;1.63;;;;;;;;;;7366351;19;20200;-63
2022/12/12 18:57:59;;;;;;;1.60;1.50;;;;;;;;;;7378574;19;20886;-63
2022/12/12 19:00:25;;;;;;;0.77;0.77;;;;;;;;;;7383095;19;20133;-62
2022/12/12 19:02:51;;;;;;;0.90;0.90;;;;;;;;;;7385476;19;20475;-63
2022/12/12 19:05:16;;;;;;;1.43;1.37;;;;;;;;;;7388363;19;20129;-63
2022/12/12 19:07:42;;;;;;;1.33;1.23;;;;;;;;;;7392308;19;20125;-63
2022/12/12 19:10:09;;;;;;;0.87;0.87;;;;;;;;;;7384573;19;20470;-63
2022/12/12 19:12:34;;;;;;;1.43;1.33;;;;;;;;;;7386294;19;20141;-63
2022/12/12 19:14:59;;;;;;;1.57;1.47;;;;;;;;;;7386503;19;20121;-63
2022/12/12 19:17:25;;;;;;;1.27;1.17;;;;;;;;;;7383136;19;20137;-63
2022/12/12 19:19:51;;;;;;;1.33;1.23;;;;;;;;;;7387724;19;20128;-63
2022/12/12 19:22:16;;;;;;;1.70;1.60;;;;;;;;;;7385431;19;20153;-63
2022/12/12 19:24:42;;;;;;;1.47;1.37;;;;;;;;;;7381598;19;20129;-63
2022/12/12 19:27:07;;;;;;;1.10;1.10;;;;;;;;;;7387837;19;20120;-63
2022/12/12 19:29:32;;;;;;;1.40;1.30;;;;;;;;;;7378630;19;20517;-63
2022/12/12 19:31:58;;;;;;;1.17;1.07;;;;;;;;;;7369733;19;20486;-63
2022/12/12 19:34:23;;;;;;;3.17;1.53;;;;;;;;;;7370436;19;20515;-63
2022/12/12 19:36:49;;;;;;;3.13;1.50;;;;;;;;;;7377452;19;20593;-63
2022/12/12 19:39:15;;;;;;;2.40;0.97;;;;;;;;;;7338811;19;20195;-63
2022/12/12 19:41:40;;;;;;;1.47;1.37;;;;;;;;;;7355956;19;20142;-63
2022/12/12 19:44:11;;;;;;;1.10;1.03;;;;;;;;;;7362516;19;20132;-63
2022/12/12 19:46:36;;;;;;;2.27;1.67;;;;;;;;;;7367533;19;20121;-63
2022/12/12 19:49:05;;;;;;;0.90;0.90;;;;;;;;;;7374898;19;20151;-63
2022/12/12 19:51:34;;;;;;;1.13;1.13;;;;;;;;;;7362273;19;20501;-63
2022/12/12 19:54:00;;;;;;;2.83;1.33;;;;;;;;;;7379507;19;20145;-63
2022/12/12 19:56:31;;;;;;;1.50;1.27;;;;;;;;;;7367873;19;20124;-63
2022/12/12 19:58:57;;;;;;;2.17;1.60;;;;;;;;;;7374442;19;20569;-63
2022/12/12 20:01:29;;;;;;;1.80;1.47;;;;;;;;;;7371569;19;20253;-63
2022/12/12 20:04:01;;;;;;;3.27;2.03;;;;;;;;;;7377644;19;20637;-63
2022/12/12 20:06:26;;;;;;;1.30;1.20;;;;;;;;;;7373941;19;20485;-64
2022/12/12 20:08:52;;;;;;;3.60;1.60;;;;;;;;;;7365350;19;20129;-63
2022/12/12 20:11:20;;;;;;;0.90;0.90;;;;;;;;;;7361010;19;20597;-63
2022/12/12 20:13:53;;;;;;;1.33;1.23;;;;;;;;;;7372110;19;20153;-63
2022/12/12 20:16:21;;;;;;;1.43;1.03;;;;;;;;;;7360732;19;20500;-63
2022/12/12 20:18:48;;;;;;;0.57;0.57;;;;;;;;;;7360069;19;20133;-63
2022/12/12 20:21:15;;;;;;;1.40;1.30;;;;;;;;;;7361962;19;20847;-63
2022/12/12 20:23:41;;;;;;;1.20;1.13;;;;;;;;;;7354527;19;20147;-63
2022/12/12 20:26:09;;;;;;;1.07;0.97;;;;;;;;;;7359733;19;20458;-63
2022/12/12 20:28:35;;;;;;;0.80;0.80;;;;;;;;;;7373672;19;20606;-63
2022/12/12 20:31:04;;;;;;;1.03;1.03;;;;;;;;;;7375352;19;20136;-63
2022/12/12 20:33:30;;;;;;;2.60;1.53;;;;;;;;;;7383801;19;20515;-63
2022/12/12 20:35:59;;;;;;;1.80;1.07;;;;;;;;;;7382067;19;20125;-63
2022/12/12 20:38:25;;;;;;;1.80;1.60;;;;;;;;;;7368801;19;20141;-63
2022/12/12 20:40:50;;;;;;;2.07;1.63;;;;;;;;;;7371889;19;20503;-63
2022/12/12 20:43:16;;;;;;;1.00;1.00;;;;;;;;;;7362287;19;20152;-64
2022/12/12 20:45:41;;;;;;;1.27;1.17;;;;;;;;;;7366870;19;20129;-64
2022/12/12 20:48:06;;;;;;;1.47;1.37;;;;;;;;;;7366847;19;20486;-63
2022/12/12 20:50:32;;;;;;;1.23;1.10;;;;;;;;;;7365433;19;20150;-64
2022/12/12 20:52:57;;;;;;;2.10;1.90;;;;;;;;;;7370727;19;20149;-64
2022/12/12 20:55:23;;;;;;;2.37;1.17;;;;;;;;;;7367659;19;20128;-63
2022/12/12 20:57:48;;;;;;;1.70;1.40;;;;;;;;;;7366335;19;20129;-63
2022/12/12 21:00:14;;;;;;;4.47;1.03;;;;;;;;;;7361575;19;20135;-64
2022/12/12 21:02:39;;;;;;;1.30;1.30;;;;;;;;;;7380299;19;20145;-63
2022/12/12 21:05:07;;;;;;;0.90;0.90;;;;;;;;;;7378319;19;20133;-63
2022/12/12 21:07:32;;;;;;;1.33;1.23;;;;;;;;;;7380634;19;20140;-63
2022/12/12 21:09:57;;;;;;;0.77;0.77;;;;;;;;;;7386394;19;20131;-64
2022/12/12 21:12:23;;;;;;;0.73;0.73;;;;;;;;;;7389646;19;20158;-63
2022/12/12 21:14:48;;;;;;;1.00;1.00;;;;;;;;;;7394959;19;20117;-63
2022/12/12 21:17:13;;;;;;;1.43;1.23;;;;;;;;;;7393133;19;20133;-63
2022/12/12 21:19:39;;;;;;;0.70;0.70;;;;;;;;;;7392140;19;20125;-64
2022/12/12 21:22:07;;;;;;;2.93;1.73;;;;;;;;;;7383711;19;20606;-64
2022/12/12 21:24:32;;;;;;;3.80;1.37;;;;;;;;;;7396618;19;20117;-63
2022/12/12 21:26:57;;;;;;;2.00;1.23;;;;;;;;;;7394794;19;20139;-64
2022/12/12 21:29:22;;;;;;;1.87;1.70;;;;;;;;;;7394493;19;20121;-64
2022/12/12 21:31:48;;;;;;;1.27;1.03;;;;;;;;;;7389665;19;20121;-64
2022/12/12 21:34:15;;;;;;;1.10;1.00;;;;;;;;;;7377709;19;20125;-64
2022/12/12 21:36:40;;;;;;;1.27;1.00;;;;;;;;;;7377404;19;20158;-63
2022/12/12 21:39:06;;;;;;;1.30;1.20;;;;;;;;;;7384448;19;20590;-64
2022/12/12 21:41:32;;;;;;;1.37;1.27;;;;;;;;;;7378572;19;20144;-63
2022/12/12 21:43:58;;;;;;;1.93;1.67;;;;;;;;;;7381735;19;20598;-64
2022/12/12 21:46:25;;;;;;;2.40;1.50;;;;;;;;;;7381915;19;20136;-64
2022/12/12 21:51:35;;;;;;;1.17;1.17;;;;;;;;;;7377584;19;20148;-64
2022/12/12 21:54:04;;;;;;;1.43;1.33;;;;;;;;;;7381834;19;20113;-64
2022/12/12 21:56:29;;;;;;;0.90;0.90;;;;;;;;;;7375128;19;20137;-64
2022/12/12 21:58:55;;;;;;;1.43;1.33;;;;;;;;;;7375131;19;20589;-64
2022/12/12 22:01:20;;;;;;;2.27;2.07;;;;;;;;;;7374900;19;20607;-64
2022/12/12 22:03:47;;;;;;;1.67;1.57;;;;;;;;;;7376389;19;20168;-63
2022/12/12 22:06:15;;;;;;;1.30;1.20;;;;;;;;;;7381831;19;20128;-63
2022/12/12 22:08:41;;;;;;;0.97;0.83;;;;;;;;;;7393292;19;20141;-66
2022/12/12 22:11:07;;;;;;;0.87;0.87;;;;;;;;;;7391701;19;20133;-63
2022/12/12 22:13:33;;;;;;;0.97;0.97;;;;;;;;;;7391304;19;20160;-64
2022/12/12 22:16:00;;;;;;;1.23;1.20;;;;;;;;;;7386655;19;20136;-64
2022/12/12 22:18:26;;;;;;;1.20;1.13;;;;;;;;;;7385876;19;20148;-64
2022/12/12 22:20:51;;;;;;;0.93;0.93;;;;;;;;;;7384360;19;20451;-64
2022/12/12 22:23:17;;;;;;;0.67;0.67;;;;;;;;;;7366574;19;20172;-64
2022/12/12 22:25:43;;;;;;;1.83;1.57;;;;;;;;;;7392262;19;20196;-63
2022/12/12 22:28:08;;;;;;;0.87;0.87;;;;;;;;;;7394485;19;20144;-64
2022/12/12 22:30:33;;;;;;;2.00;1.40;;;;;;;;;;7394036;19;20540;-63
2022/12/12 22:32:59;;;;;;;0.60;0.60;;;;;;;;;;7392795;19;20174;-63
2022/12/12 22:35:24;;;;;;;1.57;1.47;;;;;;;;;;7394513;19;20125;-64
2022/12/12 22:37:50;;;;;;;1.43;1.27;;;;;;;;;;7396245;19;20140;-64
2022/12/12 22:40:15;;;;;;;1.33;1.20;;;;;;;;;;7395687;19;20594;-64
2022/12/12 22:42:40;;;;;;;1.37;1.27;;;;;;;;;;7393267;19;20172;-63
2022/12/12 22:45:06;;;;;;;1.43;1.30;;;;;;;;;;7390467;19;20121;-63
2022/12/12 22:47:31;;;;;;;1.33;0.93;;;;;;;;;;7378654;19;20155;-63
2022/12/12 22:49:57;;;;;;;1.17;1.07;;;;;;;;;;7387619;19;20483;-63
2022/12/12 22:52:24;;;;;;;0.90;0.90;;;;;;;;;;7388021;19;20157;-64
2022/12/12 22:54:49;;;;;;;1.23;1.17;;;;;;;;;;7393508;19;20116;-63
2022/12/12 22:57:15;;;;;;;2.13;1.83;;;;;;;;;;7395373;19;20132;-64
2022/12/12 22:59:40;;;;;;;1.73;1.63;;;;;;;;;;7392310;19;20113;-63
2022/12/12 23:02:05;;;;;;;1.43;1.30;;;;;;;;;;7393016;19;20140;-64
2022/12/12 23:04:31;;;;;;;0.73;0.73;;;;;;;;;;7393476;19;20124;-63
2022/12/12 23:06:56;;;;;;;1.40;1.30;;;;;;;;;;7388896;19;20220;-64
2022/12/12 23:09:24;;;;;;;0.70;0.70;;;;;;;;;;7392542;19;20157;-63
2022/12/12 23:11:50;;;;;;;1.77;1.30;;;;;;;;;;7389870;19;20124;-64
2022/12/12 23:14:18;;;;;;;1.70;1.33;;;;;;;;;;7392409;19;20602;-63
2022/12/12 23:16:44;;;;;;;1.03;1.03;;;;;;;;;;7386087;19;20128;-63
2022/12/12 23:19:10;;;;;;;1.53;1.43;;;;;;;;;;7390771;19;20137;-63
2022/12/12 23:21:36;;;;;;;1.20;1.10;;;;;;;;;;7384290;19;20121;-64
2022/12/12 23:24:02;;;;;;;2.50;1.83;;;;;;;;;;7391024;19;20144;-63
2022/12/12 23:26:29;;;;;;;0.93;0.93;;;;;;;;;;7391623;19;20125;-64
2022/12/12 23:28:58;;;;;;;0.87;0.87;;;;;;;;;;7388022;19;20155;-64
2022/12/12 23:31:29;;;;;;;0.87;0.73;;;;;;;;;;7390325;19;20125;-64
2022/12/12 23:33:57;;;;;;;1.10;1.10;;;;;;;;;;7389777;19;20153;-64
2022/12/12 23:36:23;;;;;;;1.10;1.10;;;;;;;;;;7391491;19;20529;-64
2022/12/12 23:38:56;;;;;;;0.93;0.93;;;;;;;;;;7386095;19;20145;-63
2022/12/12 23:41:22;;;;;;;1.40;1.30;;;;;;;;;;7393592;19;20133;-63
2022/12/12 23:43:48;;;;;;;1.03;1.03;;;;;;;;;;7391210;19;20645;-63
2022/12/12 23:46:26;;;;;;;0.70;0.70;;;;;;;;;;7393914;19;20583;-64
2022/12/12 23:48:56;;;;;;;0.73;0.73;;;;;;;;;;7390296;19;20132;-64
2022/12/12 23:51:23;;;;;;;2.37;1.67;;;;;;;;;;7393100;19;20133;-63
2022/12/12 23:53:48;;;;;;;1.60;1.50;;;;;;;;;;7391033;19;20193;-64
2022/12/12 23:56:14;;;;;;;1.27;1.00;;;;;;;;;;7392126;19;20473;-64
2022/12/12 23:58:39;;;;;;;1.87;0.60;;;;;;;;;;7390334;19;20124;-64
